Terminal Aerodrome Forecast
Issued by NWS Charleston, WV

Home | Current Version | Previous Version | Text Only | Print | Product List | Glossary On
Versions: 1 2 3 4 5 6 7 8 9 10 11 12 13 14 15 16 17 18 19 20 21 22 23 24 25
461
FTUS41 KRLX 271735
TAFCRW
TAF
KCRW 271735Z 2718/2818 25005KT P6SM TSRA OVC060CB
     FM271900 26005KT 5SM TSRA BKN050CB
     FM272100 25004KT P6SM SHRA VCTS BKN080CB
     FM280900 VRB02KT 2SM BR SCT001
     FM281200 00000KT P6SM SCT015
     FM281400 25004KT P6SM SCT150=

USA.gov is the U.S. government's official web portal to all federal, state and local government web resources and services.